sensor_id;sensor_type;location;lat;lon;timestamp;temperature;humidity
29453;DHT22;16424;50.956;5.320;2023-01-09T00:00:16;8.60;99.90
29453;DHT22;16424;50.956;5.320;2023-01-09T00:02:42;8.60;99.90
29453;DHT22;16424;50.956;5.320;2023-01-09T00:05:13;8.60;99.90
29453;DHT22;16424;50.956;5.320;2023-01-09T00:07:39;8.60;99.90
29453;DHT22;16424;50.956;5.320;2023-01-09T00:10:06;8.50;99.90
29453;DHT22;16424;50.956;5.320;2023-01-09T00:12:32;8.60;99.90
29453;DHT22;16424;50.956;5.320;2023-01-09T00:14:58;8.60;99.90
29453;DHT22;16424;50.956;5.320;2023-01-09T00:17:24;8.60;99.90
29453;DHT22;16424;50.956;5.320;2023-01-09T00:19:49;8.60;99.90
29453;DHT22;16424;50.956;5.320;2023-01-09T00:22:15;8.60;99.90
29453;DHT22;16424;50.956;5.320;2023-01-09T00:24:41;8.60;99.90
29453;DHT22;16424;50.956;5.320;2023-01-09T00:27:07;8.60;99.90
29453;DHT22;16424;50.956;5.320;2023-01-09T00:29:32;8.40;99.90
29453;DHT22;16424;50.956;5.320;2023-01-09T00:31:58;8.40;99.90
29453;DHT22;16424;50.956;5.320;2023-01-09T00:34:24;8.30;99.90
29453;DHT22;16424;50.956;5.320;2023-01-09T00:36:50;8.20;99.90
29453;DHT22;16424;50.956;5.320;2023-01-09T00:39:21;8.30;99.90
29453;DHT22;16424;50.956;5.320;2023-01-09T00:41:50;8.30;99.90
29453;DHT22;16424;50.956;5.320;2023-01-09T00:44:30;8.20;99.90
29453;DHT22;16424;50.956;5.320;2023-01-09T00:47:06;8.10;99.90
29453;DHT22;16424;50.956;5.320;2023-01-09T00:49:35;8.20;99.90
29453;DHT22;16424;50.956;5.320;2023-01-09T00:52:03;8.10;99.90
29453;DHT22;16424;50.956;5.320;2023-01-09T00:54:30;8.20;99.90
29453;DHT22;16424;50.956;5.320;2023-01-09T00:56:56;8.20;99.90
29453;DHT22;16424;50.956;5.320;2023-01-09T00:59:23;8.10;99.90
29453;DHT22;16424;50.956;5.320;2023-01-09T01:01:49;8.10;99.90
29453;DHT22;16424;50.956;5.320;2023-01-09T01:04:14;8.10;99.90
29453;DHT22;16424;50.956;5.320;2023-01-09T01:06:58;8.20;99.90
29453;DHT22;16424;50.956;5.320;2023-01-09T01:09:42;8.30;99.90
29453;DHT22;16424;50.956;5.320;2023-01-09T01:12:08;8.20;99.90
29453;DHT22;16424;50.956;5.320;2023-01-09T01:14:35;8.10;99.90
29453;DHT22;16424;50.956;5.320;2023-01-09T01:17:01;8.00;99.90
29453;DHT22;16424;50.956;5.320;2023-01-09T01:19:27;8.10;99.90
29453;DHT22;16424;50.956;5.320;2023-01-09T01:21:53;8.00;99.90
29453;DHT22;16424;50.956;5.320;2023-01-09T01:24:19;8.00;99.90
29453;DHT22;16424;50.956;5.320;2023-01-09T01:26:45;8.10;99.90
29453;DHT22;16424;50.956;5.320;2023-01-09T01:29:11;8.20;99.90
29453;DHT22;16424;50.956;5.320;2023-01-09T01:31:37;8.10;99.90
29453;DHT22;16424;50.956;5.320;2023-01-09T01:34:03;8.10;99.90
29453;DHT22;16424;50.956;5.320;2023-01-09T01:36:29;8.00;99.90
29453;DHT22;16424;50.956;5.320;2023-01-09T01:38:55;7.90;99.90
29453;DHT22;16424;50.956;5.320;2023-01-09T01:41:21;7.90;99.90
29453;DHT22;16424;50.956;5.320;2023-01-09T01:46:22;7.80;99.90
29453;DHT22;16424;50.956;5.320;2023-01-09T01:48:51;7.80;99.90
29453;DHT22;16424;50.956;5.320;2023-01-09T01:51:20;7.80;99.90
29453;DHT22;16424;50.956;5.320;2023-01-09T01:53:52;7.80;99.90
29453;DHT22;16424;50.956;5.320;2023-01-09T01:56:27;7.60;99.90
29453;DHT22;16424;50.956;5.320;2023-01-09T01:59:31;7.70;99.90
29453;DHT22;16424;50.956;5.320;2023-01-09T02:02:00;7.60;99.90
29453;DHT22;16424;50.956;5.320;2023-01-09T02:04:27;7.50;99.90
29453;DHT22;16424;50.956;5.320;2023-01-09T02:06:55;7.40;99.90
29453;DHT22;16424;50.956;5.320;2023-01-09T02:09:21;7.50;99.90
29453;DHT22;16424;50.956;5.320;2023-01-09T02:11:49;7.50;99.90
29453;DHT22;16424;50.956;5.320;2023-01-09T02:14:19;7.50;99.90
29453;DHT22;16424;50.956;5.320;2023-01-09T02:28:24;7.50;99.90
29453;DHT22;16424;50.956;5.320;2023-01-09T02:31:10;7.60;99.90
29453;DHT22;16424;50.956;5.320;2023-01-09T02:38:56;7.40;99.90
29453;DHT22;16424;50.956;5.320;2023-01-09T02:41:54;7.40;99.90
29453;DHT22;16424;50.956;5.320;2023-01-09T02:44:29;7.40;99.90
29453;DHT22;16424;50.956;5.320;2023-01-09T02:49:59;7.30;99.90
29453;DHT22;16424;50.956;5.320;2023-01-09T02:52:47;7.20;99.90
29453;DHT22;16424;50.956;5.320;2023-01-09T03:03:47;7.20;99.90
29453;DHT22;16424;50.956;5.320;2023-01-09T03:06:19;7.20;99.90
29453;DHT22;16424;50.956;5.320;2023-01-09T03:08:54;7.10;99.90
29453;DHT22;16424;50.956;5.320;2023-01-09T03:11:21;7.20;99.90
29453;DHT22;16424;50.956;5.320;2023-01-09T03:13:54;7.20;99.90
29453;DHT22;16424;50.956;5.320;2023-01-09T03:16:27;7.30;99.90
29453;DHT22;16424;50.956;5.320;2023-01-09T03:18:55;7.30;99.90
29453;DHT22;16424;50.956;5.320;2023-01-09T03:21:22;7.40;99.90
29453;DHT22;16424;50.956;5.320;2023-01-09T03:26:18;7.40;99.90
29453;DHT22;16424;50.956;5.320;2023-01-09T03:28:45;7.30;99.90
29453;DHT22;16424;50.956;5.320;2023-01-09T03:31:11;7.30;99.90
29453;DHT22;16424;50.956;5.320;2023-01-09T03:33:37;7.40;99.90
29453;DHT22;16424;50.956;5.320;2023-01-09T03:36:04;7.50;99.90
29453;DHT22;16424;50.956;5.320;2023-01-09T03:38:29;7.50;99.90
29453;DHT22;16424;50.956;5.320;2023-01-09T03:40:55;7.60;99.90
29453;DHT22;16424;50.956;5.320;2023-01-09T03:43:21;7.40;99.90
29453;DHT22;16424;50.956;5.320;2023-01-09T03:45:46;7.40;99.90
29453;DHT22;16424;50.956;5.320;2023-01-09T03:48:12;7.40;99.90
29453;DHT22;16424;50.956;5.320;2023-01-09T03:50:38;7.60;99.90
29453;DHT22;16424;50.956;5.320;2023-01-09T03:53:07;7.60;99.90
29453;DHT22;16424;50.956;5.320;2023-01-09T03:55:32;7.70;99.90
29453;DHT22;16424;50.956;5.320;2023-01-09T03:57:58;7.80;99.90
29453;DHT22;16424;50.956;5.320;2023-01-09T04:00:23;7.90;99.90
29453;DHT22;16424;50.956;5.320;2023-01-09T04:02:49;7.80;99.90
29453;DHT22;16424;50.956;5.320;2023-01-09T04:05:15;7.80;99.90
29453;DHT22;16424;50.956;5.320;2023-01-09T04:07:41;7.80;99.90
29453;DHT22;16424;50.956;5.320;2023-01-09T04:10:07;7.70;99.90
29453;DHT22;16424;50.956;5.320;2023-01-09T04:12:33;7.70;99.90
29453;DHT22;16424;50.956;5.320;2023-01-09T04:14:58;7.80;99.90
29453;DHT22;16424;50.956;5.320;2023-01-09T04:17:24;7.90;99.90
29453;DHT22;16424;50.956;5.320;2023-01-09T04:19:50;7.90;99.90
29453;DHT22;16424;50.956;5.320;2023-01-09T04:22:15;8.00;99.90
29453;DHT22;16424;50.956;5.320;2023-01-09T04:24:41;8.00;99.90
29453;DHT22;16424;50.956;5.320;2023-01-09T04:27:06;8.10;99.90
29453;DHT22;16424;50.956;5.320;2023-01-09T04:29:32;8.10;99.90
29453;DHT22;16424;50.956;5.320;2023-01-09T04:31:58;8.10;99.90
29453;DHT22;16424;50.956;5.320;2023-01-09T04:34:23;8.20;99.90
29453;DHT22;16424;50.956;5.320;2023-01-09T04:36:53;8.10;99.90
29453;DHT22;16424;50.956;5.320;2023-01-09T04:39:22;8.10;99.90
29453;DHT22;16424;50.956;5.320;2023-01-09T04:41:47;8.10;99.90
29453;DHT22;16424;50.956;5.320;2023-01-09T04:44:17;8.20;99.90
29453;DHT22;16424;50.956;5.320;2023-01-09T04:46:43;8.20;99.90
29453;DHT22;16424;50.956;5.320;2023-01-09T04:49:09;8.10;99.90
29453;DHT22;16424;50.956;5.320;2023-01-09T04:51:35;8.10;99.90
29453;DHT22;16424;50.956;5.320;2023-01-09T04:54:00;8.00;99.90
29453;DHT22;16424;50.956;5.320;2023-01-09T04:56:26;8.00;99.90
29453;DHT22;16424;50.956;5.320;2023-01-09T04:58:52;8.10;99.90
29453;DHT22;16424;50.956;5.320;2023-01-09T05:01:17;8.10;99.90
29453;DHT22;16424;50.956;5.320;2023-01-09T05:03:43;8.10;99.90
29453;DHT22;16424;50.956;5.320;2023-01-09T05:06:08;8.10;99.90
29453;DHT22;16424;50.956;5.320;2023-01-09T05:08:34;8.20;99.90
29453;DHT22;16424;50.956;5.320;2023-01-09T05:11:00;8.30;99.90
29453;DHT22;16424;50.956;5.320;2023-01-09T05:13:26;8.20;99.90
29453;DHT22;16424;50.956;5.320;2023-01-09T05:15:51;8.30;99.90
29453;DHT22;16424;50.956;5.320;2023-01-09T05:18:17;8.30;99.90
29453;DHT22;16424;50.956;5.320;2023-01-09T05:20:43;8.30;99.90
29453;DHT22;16424;50.956;5.320;2023-01-09T05:23:08;8.20;99.90
29453;DHT22;16424;50.956;5.320;2023-01-09T05:25:34;8.20;99.90
29453;DHT22;16424;50.956;5.320;2023-01-09T05:28:00;8.20;99.90
29453;DHT22;16424;50.956;5.320;2023-01-09T05:30:26;8.30;99.90
29453;DHT22;16424;50.956;5.320;2023-01-09T05:32:51;8.40;99.90
29453;DHT22;16424;50.956;5.320;2023-01-09T05:35:17;8.50;99.90
29453;DHT22;16424;50.956;5.320;2023-01-09T05:37:43;8.40;99.90
29453;DHT22;16424;50.956;5.320;2023-01-09T05:40:09;8.60;99.90
29453;DHT22;16424;50.956;5.320;2023-01-09T05:42:35;8.50;99.90
29453;DHT22;16424;50.956;5.320;2023-01-09T05:45:01;8.50;99.90
29453;DHT22;16424;50.956;5.320;2023-01-09T05:47:27;8.40;99.90
29453;DHT22;16424;50.956;5.320;2023-01-09T05:49:52;8.40;99.90
29453;DHT22;16424;50.956;5.320;2023-01-09T05:52:23;8.40;99.90
29453;DHT22;16424;50.956;5.320;2023-01-09T05:54:52;8.50;99.90
29453;DHT22;16424;50.956;5.320;2023-01-09T05:57:18;8.50;99.90
29453;DHT22;16424;50.956;5.320;2023-01-09T05:59:44;8.50;99.90
29453;DHT22;16424;50.956;5.320;2023-01-09T06:02:09;8.60;99.90
29453;DHT22;16424;50.956;5.320;2023-01-09T06:04:35;8.60;99.90
29453;DHT22;16424;50.956;5.320;2023-01-09T06:07:01;8.60;99.90
29453;DHT22;16424;50.956;5.320;2023-01-09T06:09:26;8.70;99.90
29453;DHT22;16424;50.956;5.320;2023-01-09T06:11:53;8.60;99.90
29453;DHT22;16424;50.956;5.320;2023-01-09T06:14:22;8.60;99.90
29453;DHT22;16424;50.956;5.320;2023-01-09T06:16:48;8.60;99.90
29453;DHT22;16424;50.956;5.320;2023-01-09T06:19:14;8.70;99.90
29453;DHT22;16424;50.956;5.320;2023-01-09T06:21:39;8.70;99.90
29453;DHT22;16424;50.956;5.320;2023-01-09T06:24:05;8.70;99.90
29453;DHT22;16424;50.956;5.320;2023-01-09T06:26:31;8.80;99.90
29453;DHT22;16424;50.956;5.320;2023-01-09T06:28:57;8.60;99.90
29453;DHT22;16424;50.956;5.320;2023-01-09T06:31:25;8.60;99.90
29453;DHT22;16424;50.956;5.320;2023-01-09T06:33:50;8.60;99.90
29453;DHT22;16424;50.956;5.320;2023-01-09T06:36:16;8.70;99.90
29453;DHT22;16424;50.956;5.320;2023-01-09T06:38:42;8.70;99.90
29453;DHT22;16424;50.956;5.320;2023-01-09T06:41:08;8.70;99.90
29453;DHT22;16424;50.956;5.320;2023-01-09T06:43:34;8.70;99.90
29453;DHT22;16424;50.956;5.320;2023-01-09T06:45:59;8.70;99.90
29453;DHT22;16424;50.956;5.320;2023-01-09T06:48:25;8.70;99.90
29453;DHT22;16424;50.956;5.320;2023-01-09T06:50:52;8.70;99.90
29453;DHT22;16424;50.956;5.320;2023-01-09T06:53:18;8.70;99.90
29453;DHT22;16424;50.956;5.320;2023-01-09T06:55:44;8.70;99.90
29453;DHT22;16424;50.956;5.320;2023-01-09T06:58:10;8.70;99.90
29453;DHT22;16424;50.956;5.320;2023-01-09T07:00:36;8.70;99.90
29453;DHT22;16424;50.956;5.320;2023-01-09T07:03:03;8.70;99.90
29453;DHT22;16424;50.956;5.320;2023-01-09T07:05:29;8.70;99.90
29453;DHT22;16424;50.956;5.320;2023-01-09T07:07:55;8.70;99.90
29453;DHT22;16424;50.956;5.320;2023-01-09T07:10:22;8.70;99.90
29453;DHT22;16424;50.956;5.320;2023-01-09T07:12:47;8.70;99.90
29453;DHT22;16424;50.956;5.320;2023-01-09T07:15:13;8.70;99.90
29453;DHT22;16424;50.956;5.320;2023-01-09T07:17:39;8.70;99.90
29453;DHT22;16424;50.956;5.320;2023-01-09T07:20:05;8.60;99.90
29453;DHT22;16424;50.956;5.320;2023-01-09T07:22:31;8.60;99.90
29453;DHT22;16424;50.956;5.320;2023-01-09T07:24:57;8.50;99.90
29453;DHT22;16424;50.956;5.320;2023-01-09T07:27:22;8.60;99.90
29453;DHT22;16424;50.956;5.320;2023-01-09T07:29:48;8.60;99.90
29453;DHT22;16424;50.956;5.320;2023-01-09T07:32:16;8.60;99.90
29453;DHT22;16424;50.956;5.320;2023-01-09T07:34:41;8.70;99.90
29453;DHT22;16424;50.956;5.320;2023-01-09T07:37:07;8.70;99.90
29453;DHT22;16424;50.956;5.320;2023-01-09T07:39:33;8.70;99.90
29453;DHT22;16424;50.956;5.320;2023-01-09T07:41:58;8.70;99.90
29453;DHT22;16424;50.956;5.320;2023-01-09T07:44:24;8.80;99.90
29453;DHT22;16424;50.956;5.320;2023-01-09T07:46:50;8.80;99.90
29453;DHT22;16424;50.956;5.320;2023-01-09T07:49:15;8.80;99.90
29453;DHT22;16424;50.956;5.320;2023-01-09T07:51:41;8.70;99.90
29453;DHT22;16424;50.956;5.320;2023-01-09T07:54:10;8.80;99.90
29453;DHT22;16424;50.956;5.320;2023-01-09T07:56:39;8.70;99.90
29453;DHT22;16424;50.956;5.320;2023-01-09T07:59:05;8.60;99.90
29453;DHT22;16424;50.956;5.320;2023-01-09T08:01:30;8.70;99.90
29453;DHT22;16424;50.956;5.320;2023-01-09T08:03:56;8.60;99.90
29453;DHT22;16424;50.956;5.320;2023-01-09T08:06:22;8.60;99.90
29453;DHT22;16424;50.956;5.320;2023-01-09T08:08:47;8.60;99.90
29453;DHT22;16424;50.956;5.320;2023-01-09T08:11:14;8.60;99.90
29453;DHT22;16424;50.956;5.320;2023-01-09T08:13:40;8.60;99.90
29453;DHT22;16424;50.956;5.320;2023-01-09T08:16:06;8.50;99.90
29453;DHT22;16424;50.956;5.320;2023-01-09T08:18:32;8.60;99.90
29453;DHT22;16424;50.956;5.320;2023-01-09T08:20:58;8.60;99.90
29453;DHT22;16424;50.956;5.320;2023-01-09T08:23:23;8.60;99.90
29453;DHT22;16424;50.956;5.320;2023-01-09T08:25:49;8.60;99.90
29453;DHT22;16424;50.956;5.320;2023-01-09T08:28:15;8.60;99.90
29453;DHT22;16424;50.956;5.320;2023-01-09T08:30:41;8.60;99.90
29453;DHT22;16424;50.956;5.320;2023-01-09T08:33:09;8.70;99.90
29453;DHT22;16424;50.956;5.320;2023-01-09T08:35:35;8.70;99.90
29453;DHT22;16424;50.956;5.320;2023-01-09T08:38:01;8.70;99.90
29453;DHT22;16424;50.956;5.320;2023-01-09T08:40:27;8.80;99.90
29453;DHT22;16424;50.956;5.320;2023-01-09T08:42:53;8.70;99.90
29453;DHT22;16424;50.956;5.320;2023-01-09T08:45:37;8.70;99.90
29453;DHT22;16424;50.956;5.320;2023-01-09T08:48:21;8.80;99.90
29453;DHT22;16424;50.956;5.320;2023-01-09T08:50:46;8.80;99.90
29453;DHT22;16424;50.956;5.320;2023-01-09T08:53:12;8.80;99.90
29453;DHT22;16424;50.956;5.320;2023-01-09T08:55:38;8.80;99.90
29453;DHT22;16424;50.956;5.320;2023-01-09T08:58:03;8.90;99.90
29453;DHT22;16424;50.956;5.320;2023-01-09T09:00:29;9.00;99.90
29453;DHT22;16424;50.956;5.320;2023-01-09T09:02:57;9.10;99.90
29453;DHT22;16424;50.956;5.320;2023-01-09T09:05:24;9.10;99.90
29453;DHT22;16424;50.956;5.320;2023-01-09T09:07:51;9.20;99.90
29453;DHT22;16424;50.956;5.320;2023-01-09T09:10:20;9.30;99.90
29453;DHT22;16424;50.956;5.320;2023-01-09T09:12:53;9.30;99.90
29453;DHT22;16424;50.956;5.320;2023-01-09T09:15:20;9.20;99.90
29453;DHT22;16424;50.956;5.320;2023-01-09T09:18:03;9.10;99.90
29453;DHT22;16424;50.956;5.320;2023-01-09T09:20:32;9.00;99.90
29453;DHT22;16424;50.956;5.320;2023-01-09T09:22:59;8.90;99.90
29453;DHT22;16424;50.956;5.320;2023-01-09T09:25:25;9.00;99.90
29453;DHT22;16424;50.956;5.320;2023-01-09T09:27:51;9.00;99.90
29453;DHT22;16424;50.956;5.320;2023-01-09T09:30:18;9.00;99.90
29453;DHT22;16424;50.956;5.320;2023-01-09T09:32:44;9.10;99.90
29453;DHT22;16424;50.956;5.320;2023-01-09T09:35:11;9.10;99.90
29453;DHT22;16424;50.956;5.320;2023-01-09T09:37:37;9.20;99.90
29453;DHT22;16424;50.956;5.320;2023-01-09T09:40:04;9.20;99.90
29453;DHT22;16424;50.956;5.320;2023-01-09T09:53:39;8.80;99.90
29453;DHT22;16424;50.956;5.320;2023-01-09T09:56:10;8.80;99.90
29453;DHT22;16424;50.956;5.320;2023-01-09T09:58:40;8.90;99.90
29453;DHT22;16424;50.956;5.320;2023-01-09T10:01:06;8.80;99.90
29453;DHT22;16424;50.956;5.320;2023-01-09T10:03:37;8.80;99.90
29453;DHT22;16424;50.956;5.320;2023-01-09T10:06:28;8.90;99.90
29453;DHT22;16424;50.956;5.320;2023-01-09T10:11:34;8.80;99.90
29453;DHT22;16424;50.956;5.320;2023-01-09T10:14:02;8.80;99.90
29453;DHT22;16424;50.956;5.320;2023-01-09T10:16:37;8.80;99.90
29453;DHT22;16424;50.956;5.320;2023-01-09T10:26:51;8.80;99.90
29453;DHT22;16424;50.956;5.320;2023-01-09T10:37:29;8.80;99.90
29453;DHT22;16424;50.956;5.320;2023-01-09T10:42:34;8.80;99.90
29453;DHT22;16424;50.956;5.320;2023-01-09T10:47:38;8.60;99.90
29453;DHT22;16424;50.956;5.320;2023-01-09T10:50:34;8.60;99.90
29453;DHT22;16424;50.956;5.320;2023-01-09T10:53:13;8.50;99.90
29453;DHT22;16424;50.956;5.320;2023-01-09T10:55:44;8.50;99.90
29453;DHT22;16424;50.956;5.320;2023-01-09T10:58:22;8.60;99.90
29453;DHT22;16424;50.956;5.320;2023-01-09T11:00:48;8.70;99.90
29453;DHT22;16424;50.956;5.320;2023-01-09T11:03:20;8.80;99.90
29453;DHT22;16424;50.956;5.320;2023-01-09T11:05:51;8.70;99.90
29453;DHT22;16424;50.956;5.320;2023-01-09T11:11:38;8.60;99.90
29453;DHT22;16424;50.956;5.320;2023-01-09T11:14:16;8.70;99.90
29453;DHT22;16424;50.956;5.320;2023-01-09T11:16:53;8.70;99.90
29453;DHT22;16424;50.956;5.320;2023-01-09T11:19:19;8.80;99.90
29453;DHT22;16424;50.956;5.320;2023-01-09T11:21:45;8.70;99.90
29453;DHT22;16424;50.956;5.320;2023-01-09T11:27:12;8.90;99.90
29453;DHT22;16424;50.956;5.320;2023-01-09T11:29:35;9.10;99.90
29453;DHT22;16424;50.956;5.320;2023-01-09T11:32:00;9.10;99.90
29453;DHT22;16424;50.956;5.320;2023-01-09T11:34:28;9.00;99.90
29453;DHT22;16424;50.956;5.320;2023-01-09T11:37:07;9.00;99.90
29453;DHT22;16424;50.956;5.320;2023-01-09T11:39:36;9.20;99.90
29453;DHT22;16424;50.956;5.320;2023-01-09T11:42:08;9.10;99.90
29453;DHT22;16424;50.956;5.320;2023-01-09T11:44:42;9.10;99.90
29453;DHT22;16424;50.956;5.320;2023-01-09T11:47:25;9.00;99.90
29453;DHT22;16424;50.956;5.320;2023-01-09T11:50:17;9.00;99.90
29453;DHT22;16424;50.956;5.320;2023-01-09T11:52:43;9.20;99.90
29453;DHT22;16424;50.956;5.320;2023-01-09T11:55:12;9.40;99.90
29453;DHT22;16424;50.956;5.320;2023-01-09T11:57:40;9.40;99.90
29453;DHT22;16424;50.956;5.320;2023-01-09T12:00:27;9.50;99.90
29453;DHT22;16424;50.956;5.320;2023-01-09T12:11:01;9.10;99.90
29453;DHT22;16424;50.956;5.320;2023-01-09T12:19:02;8.90;99.90
29453;DHT22;16424;50.956;5.320;2023-01-09T12:24:26;9.00;99.90
29453;DHT22;16424;50.956;5.320;2023-01-09T12:27:46;8.90;99.90
29453;DHT22;16424;50.956;5.320;2023-01-09T12:46:28;8.80;99.90
29453;DHT22;16424;50.956;5.320;2023-01-09T12:51:44;9.10;99.90
29453;DHT22;16424;50.956;5.320;2023-01-09T12:56:53;9.00;99.90
29453;DHT22;16424;50.956;5.320;2023-01-09T12:59:33;8.90;99.90
29453;DHT22;16424;50.956;5.320;2023-01-09T13:02:13;8.90;99.90
29453;DHT22;16424;50.956;5.320;2023-01-09T13:05:01;8.90;99.90
29453;DHT22;16424;50.956;5.320;2023-01-09T13:07:43;9.00;99.90
29453;DHT22;16424;50.956;5.320;2023-01-09T13:10:25;9.10;99.90
29453;DHT22;16424;50.956;5.320;2023-01-09T13:12:52;9.30;99.90
29453;DHT22;16424;50.956;5.320;2023-01-09T13:18:39;9.50;99.90
29453;DHT22;16424;50.956;5.320;2023-01-09T13:21:07;9.60;99.90
29453;DHT22;16424;50.956;5.320;2023-01-09T13:26:42;9.20;99.90
29453;DHT22;16424;50.956;5.320;2023-01-09T13:29:24;9.30;99.90
29453;DHT22;16424;50.956;5.320;2023-01-09T13:34:45;9.20;99.90
29453;DHT22;16424;50.956;5.320;2023-01-09T13:37:28;9.20;99.90
29453;DHT22;16424;50.956;5.320;2023-01-09T13:40:00;9.20;99.90
29453;DHT22;16424;50.956;5.320;2023-01-09T13:42:26;9.40;99.90
29453;DHT22;16424;50.956;5.320;2023-01-09T13:45:32;9.40;99.90
29453;DHT22;16424;50.956;5.320;2023-01-09T13:50:43;9.20;99.90
29453;DHT22;16424;50.956;5.320;2023-01-09T14:01:03;9.30;99.90
29453;DHT22;16424;50.956;5.320;2023-01-09T14:03:35;9.10;99.90
29453;DHT22;16424;50.956;5.320;2023-01-09T14:06:04;9.00;99.90
29453;DHT22;16424;50.956;5.320;2023-01-09T14:08:31;8.90;99.90
29453;DHT22;16424;50.956;5.320;2023-01-09T14:10:58;8.90;99.90
29453;DHT22;16424;50.956;5.320;2023-01-09T14:13:26;8.80;99.90
29453;DHT22;16424;50.956;5.320;2023-01-09T14:16:04;8.80;99.90
29453;DHT22;16424;50.956;5.320;2023-01-09T14:18:37;8.70;99.90
29453;DHT22;16424;50.956;5.320;2023-01-09T14:21:11;8.80;99.90
29453;DHT22;16424;50.956;5.320;2023-01-09T14:24:01;8.90;99.90
29453;DHT22;16424;50.956;5.320;2023-01-09T14:26:54;9.00;99.90
29453;DHT22;16424;50.956;5.320;2023-01-09T14:29:40;9.20;99.90
29453;DHT22;16424;50.956;5.320;2023-01-09T14:35:07;9.40;99.90
29453;DHT22;16424;50.956;5.320;2023-01-09T14:37:35;9.30;99.90
29453;DHT22;16424;50.956;5.320;2023-01-09T14:40:02;9.40;99.90
29453;DHT22;16424;50.956;5.320;2023-01-09T14:42:31;9.40;99.90
29453;DHT22;16424;50.956;5.320;2023-01-09T14:45:15;9.40;99.90
29453;DHT22;16424;50.956;5.320;2023-01-09T14:47:47;9.40;99.90
29453;DHT22;16424;50.956;5.320;2023-01-09T14:50:32;9.40;99.90
29453;DHT22;16424;50.956;5.320;2023-01-09T14:53:10;9.50;99.90
29453;DHT22;16424;50.956;5.320;2023-01-09T14:55:56;9.40;99.90
29453;DHT22;16424;50.956;5.320;2023-01-09T14:58:31;9.50;99.90
29453;DHT22;16424;50.956;5.320;2023-01-09T15:03:32;9.50;99.90
29453;DHT22;16424;50.956;5.320;2023-01-09T15:06:01;9.60;99.90
29453;DHT22;16424;50.956;5.320;2023-01-09T15:08:28;9.40;99.90
29453;DHT22;16424;50.956;5.320;2023-01-09T15:10:54;9.40;99.90
29453;DHT22;16424;50.956;5.320;2023-01-09T15:13:42;9.40;99.90
29453;DHT22;16424;50.956;5.320;2023-01-09T15:16:17;9.50;99.90
29453;DHT22;16424;50.956;5.320;2023-01-09T15:18:47;9.20;99.90
29453;DHT22;16424;50.956;5.320;2023-01-09T15:21:22;9.10;99.90
29453;DHT22;16424;50.956;5.320;2023-01-09T15:23:48;9.10;99.90
29453;DHT22;16424;50.956;5.320;2023-01-09T15:26:28;9.30;99.90
29453;DHT22;16424;50.956;5.320;2023-01-09T15:29:08;9.30;99.90
29453;DHT22;16424;50.956;5.320;2023-01-09T15:31:38;9.30;99.90
29453;DHT22;16424;50.956;5.320;2023-01-09T15:34:05;9.40;99.90
29453;DHT22;16424;50.956;5.320;2023-01-09T15:36:31;9.40;99.90
29453;DHT22;16424;50.956;5.320;2023-01-09T15:38:58;9.30;99.90
29453;DHT22;16424;50.956;5.320;2023-01-09T15:41:28;9.30;99.90
29453;DHT22;16424;50.956;5.320;2023-01-09T15:44:23;9.30;99.90
29453;DHT22;16424;50.956;5.320;2023-01-09T15:46:51;9.40;99.90
29453;DHT22;16424;50.956;5.320;2023-01-09T15:49:21;9.40;99.90
29453;DHT22;16424;50.956;5.320;2023-01-09T15:51:47;9.30;99.90
29453;DHT22;16424;50.956;5.320;2023-01-09T15:54:16;9.30;99.90
29453;DHT22;16424;50.956;5.320;2023-01-09T15:56:42;9.40;99.90
29453;DHT22;16424;50.956;5.320;2023-01-09T15:59:37;9.40;99.90
29453;DHT22;16424;50.956;5.320;2023-01-09T16:02:04;9.40;99.90
29453;DHT22;16424;50.956;5.320;2023-01-09T16:04:53;9.50;99.90
29453;DHT22;16424;50.956;5.320;2023-01-09T16:07:20;9.30;99.90
29453;DHT22;16424;50.956;5.320;2023-01-09T16:09:47;9.20;99.90
29453;DHT22;16424;50.956;5.320;2023-01-09T16:12:21;8.90;99.90
29453;DHT22;16424;50.956;5.320;2023-01-09T16:14:58;8.80;99.90
29453;DHT22;16424;50.956;5.320;2023-01-09T16:17:25;8.90;99.90
29453;DHT22;16424;50.956;5.320;2023-01-09T16:19:56;9.00;99.90
29453;DHT22;16424;50.956;5.320;2023-01-09T16:22:31;9.00;99.90
29453;DHT22;16424;50.956;5.320;2023-01-09T16:28:26;9.00;99.90
29453;DHT22;16424;50.956;5.320;2023-01-09T16:31:21;8.80;99.90
29453;DHT22;16424;50.956;5.320;2023-01-09T16:34:02;8.70;99.90
29453;DHT22;16424;50.956;5.320;2023-01-09T16:36:30;8.50;99.90
29453;DHT22;16424;50.956;5.320;2023-01-09T16:38:57;8.50;99.90
29453;DHT22;16424;50.956;5.320;2023-01-09T16:41:25;8.60;99.90
29453;DHT22;16424;50.956;5.320;2023-01-09T16:44:10;8.60;99.90
29453;DHT22;16424;50.956;5.320;2023-01-09T16:46:41;8.60;99.90
29453;DHT22;16424;50.956;5.320;2023-01-09T16:49:16;8.60;99.90
29453;DHT22;16424;50.956;5.320;2023-01-09T16:51:43;8.30;99.90
29453;DHT22;16424;50.956;5.320;2023-01-09T16:54:08;8.20;99.90
29453;DHT22;16424;50.956;5.320;2023-01-09T16:56:35;8.20;99.90
29453;DHT22;16424;50.956;5.320;2023-01-09T16:59:01;8.20;99.90
29453;DHT22;16424;50.956;5.320;2023-01-09T17:01:27;8.20;99.90
29453;DHT22;16424;50.956;5.320;2023-01-09T17:03:53;8.30;99.90
29453;DHT22;16424;50.956;5.320;2023-01-09T17:06:23;8.20;99.90
29453;DHT22;16424;50.956;5.320;2023-01-09T17:08:51;8.10;99.90
29453;DHT22;16424;50.956;5.320;2023-01-09T17:11:22;8.00;99.90
29453;DHT22;16424;50.956;5.320;2023-01-09T17:13:49;8.20;99.90
29453;DHT22;16424;50.956;5.320;2023-01-09T17:16:16;8.30;99.90
29453;DHT22;16424;50.956;5.320;2023-01-09T17:18:42;8.40;99.90
29453;DHT22;16424;50.956;5.320;2023-01-09T17:21:14;8.40;99.90
29453;DHT22;16424;50.956;5.320;2023-01-09T17:23:41;8.30;99.90
29453;DHT22;16424;50.956;5.320;2023-01-09T17:26:16;8.30;99.90
29453;DHT22;16424;50.956;5.320;2023-01-09T17:29:01;8.40;99.90
29453;DHT22;16424;50.956;5.320;2023-01-09T17:31:27;8.30;99.90
29453;DHT22;16424;50.956;5.320;2023-01-09T17:33:54;8.30;99.90
29453;DHT22;16424;50.956;5.320;2023-01-09T17:36:29;8.20;99.90
29453;DHT22;16424;50.956;5.320;2023-01-09T17:38:57;8.20;99.90
29453;DHT22;16424;50.956;5.320;2023-01-09T17:41:25;8.00;99.90
29453;DHT22;16424;50.956;5.320;2023-01-09T17:43:51;7.90;99.90
29453;DHT22;16424;50.956;5.320;2023-01-09T17:46:28;7.90;99.90
29453;DHT22;16424;50.956;5.320;2023-01-09T17:48:54;7.90;99.90
29453;DHT22;16424;50.956;5.320;2023-01-09T17:51:20;7.90;99.90
29453;DHT22;16424;50.956;5.320;2023-01-09T17:53:46;7.90;99.90
29453;DHT22;16424;50.956;5.320;2023-01-09T17:56:23;7.90;99.90
29453;DHT22;16424;50.956;5.320;2023-01-09T17:58:49;7.80;99.90
29453;DHT22;16424;50.956;5.320;2023-01-09T18:01:16;7.80;99.90
29453;DHT22;16424;50.956;5.320;2023-01-09T18:03:43;7.90;99.90
29453;DHT22;16424;50.956;5.320;2023-01-09T18:06:11;7.90;99.90
29453;DHT22;16424;50.956;5.320;2023-01-09T18:08:37;7.90;99.90
29453;DHT22;16424;50.956;5.320;2023-01-09T18:11:05;7.90;99.90
29453;DHT22;16424;50.956;5.320;2023-01-09T18:13:31;7.80;99.90
29453;DHT22;16424;50.956;5.320;2023-01-09T18:15:58;7.70;99.90
29453;DHT22;16424;50.956;5.320;2023-01-09T18:18:25;7.70;99.90
29453;DHT22;16424;50.956;5.320;2023-01-09T18:20:51;7.80;99.90